IBE1671 LEMD-LEPA
Flight info
| Callsign | IBE1671 |
|---|---|
| Flight time | 0h 50m |
| Altitude | 30000 |
| Route | NANDO T257 FENXE/N0428F320 T257 LASPO/N0392F260 M871 GODOX |
| Aircraft | A320/M-SDE3FGHIRWY/LB1 |
Departure
| Time | 2026-05-06 17:03 |
|---|---|
| Airport | Adolfo Suárez Madrid–Barajas Airport (LEMD) |
Arrival
| Time | 2026-05-06 17:53 |
|---|---|
| Airport | Palma de Mallorca Airport (LEPA) |
| Time | Latitude | Longitude | Altitude | Speed | Heading |
|---|---|---|---|---|---|
| 2026-05-06 16:35 | 40.49043 | -3.58966 | 2029 ft | 0 kts | 271° |
| 2026-05-06 16:48 | 40.49043 | -3.58951 | 2028 ft | 4 kts | 268° |
| 2026-05-06 16:48 | 40.49046 | -3.58916 | 2024 ft | 4 kts | 252° |
| 2026-05-06 16:49 | 40.49058 | -3.58887 | 2032 ft | 4 kts | 215° |
| 2026-05-06 16:49 | 40.49072 | -3.58880 | 2029 ft | 1 kts | 179° |
| 2026-05-06 16:49 | 40.49075 | -3.58880 | 2028 ft | 0 kts | 179° |
| 2026-05-06 16:52 | 40.49066 | -3.58880 | 2029 ft | 5 kts | 180° |
| 2026-05-06 16:52 | 40.49013 | -3.58879 | 2022 ft | 8 kts | 179° |
| 2026-05-06 16:53 | 40.48963 | -3.58877 | 2027 ft | 6 kts | 178° |
| 2026-05-06 16:53 | 40.48916 | -3.58876 | 2022 ft | 10 kts | 180° |
| 2026-05-06 16:53 | 40.48851 | -3.58877 | 2022 ft | 8 kts | 180° |
| 2026-05-06 16:53 | 40.48797 | -3.58877 | 2022 ft | 8 kts | 179° |
| 2026-05-06 16:54 | 40.48761 | -3.58803 | 2022 ft | 12 kts | 92° |
| 2026-05-06 16:54 | 40.48759 | -3.58705 | 2022 ft | 10 kts | 89° |
| 2026-05-06 16:54 | 40.48760 | -3.58618 | 2022 ft | 11 kts | 90° |
| 2026-05-06 16:54 | 40.48760 | -3.58505 | 2019 ft | 15 kts | 90° |
| 2026-05-06 16:55 | 40.48760 | -3.58342 | 2013 ft | 20 kts | 89° |
| 2026-05-06 16:55 | 40.48761 | -3.58162 | 2007 ft | 16 kts | 90° |
| 2026-05-06 16:55 | 40.48793 | -3.58053 | 2003 ft | 13 kts | 20° |
| 2026-05-06 16:55 | 40.48857 | -3.57996 | 2001 ft | 13 kts | 83° |
| 2026-05-06 16:56 | 40.48858 | -3.57866 | 1996 ft | 16 kts | 90° |
| 2026-05-06 16:56 | 40.48858 | -3.57701 | 1992 ft | 20 kts | 89° |
| 2026-05-06 16:56 | 40.48860 | -3.57507 | 1988 ft | 23 kts | 89° |
| 2026-05-06 16:56 | 40.48861 | -3.57289 | 1984 ft | 25 kts | 90° |
| 2026-05-06 16:57 | 40.48862 | -3.57072 | 1980 ft | 24 kts | 90° |
| 2026-05-06 16:57 | 40.48863 | -3.56841 | 1976 ft | 26 kts | 89° |
| 2026-05-06 16:57 | 40.48863 | -3.56605 | 1972 ft | 23 kts | 89° |
| 2026-05-06 16:57 | 40.48864 | -3.56386 | 1966 ft | 22 kts | 90° |
| 2026-05-06 16:58 | 40.48881 | -3.56255 | 1962 ft | 13 kts | 41° |
| 2026-05-06 16:58 | 40.48972 | -3.56246 | 1962 ft | 13 kts | 0° |
| 2026-05-06 16:58 | 40.49061 | -3.56246 | 1962 ft | 13 kts | 0° |
| 2026-05-06 16:58 | 40.49146 | -3.56245 | 1962 ft | 12 kts | 0° |
| 2026-05-06 16:59 | 40.49222 | -3.56245 | 1962 ft | 10 kts | 360° |
| 2026-05-06 16:59 | 40.49304 | -3.56247 | 1961 ft | 14 kts | 359° |
| 2026-05-06 16:59 | 40.49418 | -3.56247 | 1962 ft | 19 kts | 360° |
| 2026-05-06 16:59 | 40.49560 | -3.56247 | 1961 ft | 21 kts | 359° |
| 2026-05-06 17:00 | 40.49713 | -3.56248 | 1961 ft | 22 kts | 359° |
| 2026-05-06 17:00 | 40.49869 | -3.56250 | 1961 ft | 18 kts | 1° |
| 2026-05-06 17:00 | 40.49941 | -3.56180 | 1959 ft | 15 kts | 90° |
| 2026-05-06 17:00 | 40.49940 | -3.56089 | 1958 ft | 0 kts | 89° |
| 2026-05-06 17:01 | 40.49940 | -3.56087 | 1958 ft | 1 kts | 89° |
| 2026-05-06 17:01 | 40.49942 | -3.56058 | 1958 ft | 6 kts | 82° |
| 2026-05-06 17:01 | 40.49976 | -3.55969 | 1959 ft | 13 kts | 48° |
| 2026-05-06 17:02 | 40.50082 | -3.55921 | 1960 ft | 29 kts | 2° |
| 2026-05-06 17:02 | 40.50540 | -3.55925 | 1965 ft | 100 kts | 359° |
| 2026-05-06 17:02 | 40.51431 | -3.55933 | 1951 ft | 154 kts | 359° |
| 2026-05-06 17:02 | 40.52585 | -3.55950 | 2381 ft | 164 kts | 359° |
| 2026-05-06 17:03 | 40.53734 | -3.55926 | 3000 ft | 170 kts | 1° |
| 2026-05-06 17:03 | 40.54942 | -3.55840 | 3598 ft | 176 kts | 7° |
| 2026-05-06 17:03 | 40.56145 | -3.55491 | 4128 ft | 181 kts | 18° |
| 2026-05-06 17:03 | 40.57408 | -3.54931 | 4384 ft | 202 kts | 20° |
| 2026-05-06 17:04 | 40.58795 | -3.54275 | 4652 ft | 218 kts | 24° |
| 2026-05-06 17:04 | 40.60082 | -3.53172 | 5173 ft | 223 kts | 44° |
| 2026-05-06 17:04 | 40.61185 | -3.51749 | 5944 ft | 223 kts | 52° |
| 2026-05-06 17:04 | 40.61857 | -3.49841 | 6307 ft | 243 kts | 84° |
| 2026-05-06 17:05 | 40.61628 | -3.47580 | 6636 ft | 263 kts | 116° |
| 2026-05-06 17:05 | 40.60666 | -3.45463 | 7204 ft | 275 kts | 123° |
| 2026-05-06 17:05 | 40.59634 | -3.43317 | 7989 ft | 280 kts | 123° |
| 2026-05-06 17:05 | 40.58589 | -3.41137 | 8807 ft | 284 kts | 122° |
| 2026-05-06 17:06 | 40.57533 | -3.38923 | 9631 ft | 287 kts | 122° |
| 2026-05-06 17:06 | 40.56466 | -3.36679 | 10349 ft | 294 kts | 122° |
| 2026-05-06 17:06 | 40.55339 | -3.34306 | 10597 ft | 318 kts | 122° |
| 2026-05-06 17:06 | 40.54133 | -3.31768 | 10963 ft | 334 kts | 122° |
| 2026-05-06 17:07 | 40.52891 | -3.29151 | 11632 ft | 340 kts | 122° |
| 2026-05-06 17:07 | 40.51634 | -3.26502 | 12360 ft | 343 kts | 122° |
| 2026-05-06 17:07 | 40.50364 | -3.23825 | 13088 ft | 347 kts | 122° |
| 2026-05-06 17:07 | 40.49078 | -3.21117 | 13798 ft | 350 kts | 123° |
| 2026-05-06 17:08 | 40.47781 | -3.18388 | 14407 ft | 354 kts | 123° |
| 2026-05-06 17:08 | 40.46466 | -3.15623 | 14996 ft | 359 kts | 123° |
| 2026-05-06 17:08 | 40.45132 | -3.12831 | 15587 ft | 363 kts | 123° |
| 2026-05-06 17:08 | 40.43777 | -3.10008 | 16171 ft | 368 kts | 123° |
| 2026-05-06 17:09 | 40.42401 | -3.07144 | 16711 ft | 374 kts | 124° |
| 2026-05-06 17:09 | 40.41007 | -3.04238 | 17262 ft | 379 kts | 124° |
| 2026-05-06 17:09 | 40.39595 | -3.01291 | 17813 ft | 384 kts | 124° |
| 2026-05-06 17:09 | 40.38184 | -2.98350 | 18342 ft | 388 kts | 124° |
| 2026-05-06 17:10 | 40.36738 | -2.95337 | 18823 ft | 393 kts | 124° |
| 2026-05-06 17:10 | 40.35274 | -2.92287 | 19305 ft | 397 kts | 124° |
| 2026-05-06 17:10 | 40.33797 | -2.89213 | 19800 ft | 400 kts | 124° |
| 2026-05-06 17:10 | 40.32306 | -2.86112 | 20285 ft | 404 kts | 124° |
| 2026-05-06 17:11 | 40.30800 | -2.82985 | 20763 ft | 408 kts | 124° |
| 2026-05-06 17:11 | 40.29278 | -2.79827 | 21232 ft | 411 kts | 125° |
| 2026-05-06 17:11 | 40.27743 | -2.76647 | 21688 ft | 415 kts | 125° |
| 2026-05-06 17:11 | 40.26194 | -2.73441 | 22143 ft | 418 kts | 125° |
| 2026-05-06 17:12 | 40.24633 | -2.70208 | 22592 ft | 422 kts | 125° |
| 2026-05-06 17:12 | 40.23056 | -2.66949 | 23035 ft | 425 kts | 125° |
| 2026-05-06 17:12 | 40.21465 | -2.63666 | 23428 ft | 429 kts | 125° |
| 2026-05-06 17:12 | 40.19860 | -2.60357 | 23820 ft | 432 kts | 125° |
| 2026-05-06 17:13 | 40.18245 | -2.57025 | 24208 ft | 434 kts | 126° |
| 2026-05-06 17:13 | 40.16624 | -2.53687 | 24594 ft | 437 kts | 126° |
| 2026-05-06 17:13 | 40.14986 | -2.50327 | 24973 ft | 439 kts | 126° |
| 2026-05-06 17:13 | 40.13342 | -2.46957 | 25346 ft | 441 kts | 126° |
| 2026-05-06 17:14 | 40.11688 | -2.43565 | 25725 ft | 443 kts | 126° |
| 2026-05-06 17:14 | 40.10028 | -2.40170 | 26073 ft | 445 kts | 126° |
| 2026-05-06 17:14 | 40.08376 | -2.36795 | 26434 ft | 448 kts | 126° |
| 2026-05-06 17:14 | 40.06693 | -2.33365 | 26789 ft | 450 kts | 126° |
| 2026-05-06 17:15 | 40.05000 | -2.29920 | 27130 ft | 452 kts | 127° |
| 2026-05-06 17:15 | 40.03302 | -2.26465 | 27456 ft | 455 kts | 127° |
| 2026-05-06 17:15 | 40.01588 | -2.22976 | 27768 ft | 457 kts | 127° |
| 2026-05-06 17:15 | 39.99868 | -2.19476 | 28099 ft | 460 kts | 127° |
| 2026-05-06 17:16 | 39.98158 | -2.15940 | 28454 ft | 463 kts | 126° |
| 2026-05-06 17:16 | 39.96527 | -2.12307 | 28795 ft | 466 kts | 124° |
| 2026-05-06 17:16 | 39.94963 | -2.08599 | 29140 ft | 468 kts | 123° |
| 2026-05-06 17:16 | 39.93434 | -2.04845 | 29455 ft | 470 kts | 122° |
| 2026-05-06 17:17 | 39.91903 | -2.01065 | 29738 ft | 473 kts | 123° |
| 2026-05-06 17:17 | 39.90351 | -1.97285 | 29896 ft | 472 kts | 123° |
| 2026-05-06 17:17 | 39.88811 | -1.93583 | 29927 ft | 458 kts | 124° |
| 2026-05-06 17:18 | 39.85754 | -1.86401 | 29919 ft | 452 kts | 125° |
| 2026-05-06 17:18 | 39.82679 | -1.79264 | 29920 ft | 452 kts | 125° |
| 2026-05-06 17:19 | 39.79616 | -1.72135 | 29923 ft | 451 kts | 125° |
| 2026-05-06 17:19 | 39.76589 | -1.65069 | 29929 ft | 450 kts | 126° |
| 2026-05-06 17:20 | 39.73548 | -1.57976 | 29925 ft | 449 kts | 126° |
| 2026-05-06 17:20 | 39.70506 | -1.50899 | 29915 ft | 448 kts | 126° |
| 2026-05-06 17:21 | 39.67461 | -1.43846 | 29939 ft | 447 kts | 126° |
| 2026-05-06 17:21 | 39.64416 | -1.36813 | 29953 ft | 447 kts | 126° |
| 2026-05-06 17:22 | 39.61370 | -1.29787 | 29954 ft | 446 kts | 126° |
| 2026-05-06 17:22 | 39.58820 | -1.23919 | 29955 ft | 446 kts | 126° |
| 2026-05-06 17:23 | 39.55791 | -1.16974 | 29949 ft | 445 kts | 126° |
| 2026-05-06 17:23 | 39.52740 | -1.09989 | 29937 ft | 446 kts | 126° |
| 2026-05-06 17:24 | 39.49678 | -1.02998 | 29936 ft | 447 kts | 126° |
| 2026-05-06 17:24 | 39.46606 | -0.96003 | 29932 ft | 447 kts | 126° |
| 2026-05-06 17:25 | 39.43532 | -0.88997 | 29923 ft | 448 kts | 126° |
| 2026-05-06 17:25 | 39.40461 | -0.81987 | 29940 ft | 448 kts | 126° |
| 2026-05-06 17:26 | 39.37371 | -0.74991 | 29924 ft | 448 kts | 126° |
| 2026-05-06 17:26 | 39.34263 | -0.67992 | 29921 ft | 450 kts | 126° |
| 2026-05-06 17:27 | 39.31128 | -0.60935 | 29933 ft | 455 kts | 125° |
| 2026-05-06 17:27 | 39.28958 | -0.53159 | 29933 ft | 470 kts | 104° |
| 2026-05-06 17:28 | 39.28788 | -0.44672 | 29920 ft | 477 kts | 89° |
| 2026-05-06 17:28 | 39.29250 | -0.36122 | 29921 ft | 478 kts | 89° |
| 2026-05-06 17:29 | 39.29693 | -0.27565 | 29923 ft | 478 kts | 89° |
| 2026-05-06 17:29 | 39.30132 | -0.19004 | 29923 ft | 478 kts | 89° |
| 2026-05-06 17:30 | 39.30568 | -0.10439 | 29921 ft | 478 kts | 89° |
| 2026-05-06 17:30 | 39.31003 | -0.01888 | 29920 ft | 477 kts | 89° |
| 2026-05-06 17:31 | 39.31429 | 0.06663 | 29911 ft | 478 kts | 89° |
| 2026-05-06 17:31 | 39.31847 | 0.15173 | 29913 ft | 478 kts | 89° |
| 2026-05-06 17:32 | 39.32262 | 0.23747 | 29909 ft | 479 kts | 89° |
| 2026-05-06 17:32 | 39.32662 | 0.32330 | 29914 ft | 479 kts | 90° |
| 2026-05-06 17:33 | 39.33056 | 0.40932 | 29909 ft | 479 kts | 89° |
| 2026-05-06 17:33 | 39.33259 | 0.45232 | 29698 ft | 481 kts | 89° |
| 2026-05-06 17:33 | 39.33461 | 0.49551 | 28962 ft | 481 kts | 89° |
| 2026-05-06 17:33 | 39.33658 | 0.53831 | 28478 ft | 475 kts | 89° |
| 2026-05-06 17:34 | 39.33849 | 0.58068 | 27969 ft | 470 kts | 89° |
| 2026-05-06 17:34 | 39.34036 | 0.62262 | 27459 ft | 465 kts | 89° |
| 2026-05-06 17:34 | 39.34221 | 0.66406 | 26976 ft | 460 kts | 89° |
| 2026-05-06 17:34 | 39.34405 | 0.70511 | 26496 ft | 455 kts | 89° |
| 2026-05-06 17:35 | 39.34583 | 0.74569 | 26031 ft | 450 kts | 89° |
| 2026-05-06 17:35 | 39.34754 | 0.78589 | 25566 ft | 445 kts | 89° |
| 2026-05-06 17:35 | 39.34920 | 0.82557 | 25133 ft | 441 kts | 88° |
| 2026-05-06 17:36 | 39.35247 | 0.90392 | 24207 ft | 432 kts | 88° |
| 2026-05-06 17:36 | 39.35406 | 0.94253 | 23744 ft | 429 kts | 88° |
| 2026-05-06 17:36 | 39.35565 | 0.98084 | 23249 ft | 425 kts | 88° |
| 2026-05-06 17:36 | 39.35723 | 1.01880 | 22770 ft | 420 kts | 88° |
| 2026-05-06 17:37 | 39.35875 | 1.05629 | 22309 ft | 416 kts | 88° |
| 2026-05-06 17:37 | 39.36023 | 1.09292 | 21860 ft | 412 kts | 88° |
| 2026-05-06 17:37 | 39.36168 | 1.12968 | 21403 ft | 408 kts | 88° |
| 2026-05-06 17:37 | 39.36314 | 1.16618 | 20940 ft | 405 kts | 88° |
| 2026-05-06 17:38 | 39.36457 | 1.20241 | 20482 ft | 402 kts | 88° |
| 2026-05-06 17:38 | 39.36600 | 1.23840 | 20022 ft | 400 kts | 88° |
| 2026-05-06 17:38 | 39.36742 | 1.27418 | 19563 ft | 398 kts | 88° |
| 2026-05-06 17:38 | 39.36879 | 1.30977 | 19110 ft | 396 kts | 88° |
| 2026-05-06 17:39 | 39.37013 | 1.34517 | 18669 ft | 394 kts | 88° |
| 2026-05-06 17:39 | 39.37147 | 1.38043 | 18209 ft | 392 kts | 88° |
| 2026-05-06 17:39 | 39.37341 | 1.41521 | 18037 ft | 381 kts | 85° |
| 2026-05-06 17:39 | 39.37609 | 1.44897 | 17704 ft | 376 kts | 84° |
| 2026-05-06 17:40 | 39.37921 | 1.48238 | 17240 ft | 374 kts | 83° |
| 2026-05-06 17:40 | 39.38249 | 1.51565 | 16780 ft | 372 kts | 83° |
| 2026-05-06 17:40 | 39.38572 | 1.54885 | 16322 ft | 371 kts | 83° |
| 2026-05-06 17:40 | 39.38882 | 1.58186 | 15876 ft | 370 kts | 84° |
| 2026-05-06 17:41 | 39.39179 | 1.61481 | 15422 ft | 369 kts | 84° |
| 2026-05-06 17:41 | 39.39467 | 1.64771 | 14970 ft | 368 kts | 84° |
| 2026-05-06 17:41 | 39.39749 | 1.68050 | 14519 ft | 367 kts | 84° |
| 2026-05-06 17:41 | 39.40027 | 1.71321 | 14068 ft | 366 kts | 84° |
| 2026-05-06 17:42 | 39.40302 | 1.74589 | 13601 ft | 365 kts | 84° |
| 2026-05-06 17:42 | 39.40575 | 1.77802 | 13129 ft | 363 kts | 84° |
| 2026-05-06 17:42 | 39.40850 | 1.81026 | 12662 ft | 357 kts | 84° |
| 2026-05-06 17:42 | 39.41118 | 1.84147 | 12225 ft | 343 kts | 83° |
| 2026-05-06 17:43 | 39.41380 | 1.87203 | 11792 ft | 342 kts | 83° |
| 2026-05-06 17:43 | 39.41640 | 1.90253 | 11348 ft | 340 kts | 83° |
| 2026-05-06 17:43 | 39.41895 | 1.93288 | 10903 ft | 339 kts | 83° |
| 2026-05-06 17:43 | 39.42148 | 1.96314 | 10454 ft | 338 kts | 83° |
| 2026-05-06 17:44 | 39.42398 | 1.99329 | 10081 ft | 334 kts | 83° |
| 2026-05-06 17:44 | 39.42643 | 2.02263 | 9942 ft | 320 kts | 83° |
| 2026-05-06 17:44 | 39.42876 | 2.05037 | 9623 ft | 304 kts | 83° |
| 2026-05-06 17:44 | 39.43101 | 2.07728 | 9086 ft | 297 kts | 83° |
| 2026-05-06 17:45 | 39.43319 | 2.10363 | 8707 ft | 294 kts | 83° |
| 2026-05-06 17:45 | 39.43536 | 2.12982 | 8259 ft | 293 kts | 83° |
| 2026-05-06 17:45 | 39.43751 | 2.15587 | 7782 ft | 289 kts | 84° |
| 2026-05-06 17:45 | 39.43960 | 2.18159 | 7340 ft | 286 kts | 84° |
| 2026-05-06 17:46 | 39.44168 | 2.20708 | 6891 ft | 284 kts | 84° |
| 2026-05-06 17:46 | 39.44371 | 2.23230 | 6444 ft | 280 kts | 84° |
| 2026-05-06 17:46 | 39.44572 | 2.25716 | 6022 ft | 277 kts | 85° |
| 2026-05-06 17:46 | 39.44772 | 2.28191 | 5607 ft | 277 kts | 85° |
| 2026-05-06 17:47 | 39.44973 | 2.30656 | 5166 ft | 272 kts | 85° |
| 2026-05-06 17:47 | 39.45171 | 2.33081 | 4743 ft | 269 kts | 85° |
| 2026-05-06 17:47 | 39.45362 | 2.35467 | 4311 ft | 265 kts | 86° |
| 2026-05-06 17:47 | 39.45548 | 2.37826 | 3892 ft | 262 kts | 85° |
| 2026-05-06 17:48 | 39.45732 | 2.40154 | 3514 ft | 256 kts | 85° |
| 2026-05-06 17:48 | 39.45905 | 2.42340 | 3457 ft | 234 kts | 85° |
| 2026-05-06 17:48 | 39.46067 | 2.44374 | 3372 ft | 220 kts | 85° |
| 2026-05-06 17:48 | 39.46218 | 2.46257 | 3285 ft | 201 kts | 85° |
| 2026-05-06 17:49 | 39.46356 | 2.47985 | 3224 ft | 190 kts | 85° |
| 2026-05-06 17:49 | 39.46489 | 2.49681 | 3132 ft | 189 kts | 85° |
| 2026-05-06 17:49 | 39.46622 | 2.51362 | 3047 ft | 187 kts | 85° |
| 2026-05-06 17:49 | 39.46755 | 2.53038 | 3001 ft | 187 kts | 85° |
| 2026-05-06 17:50 | 39.47014 | 2.54691 | 3007 ft | 189 kts | 70° |
| 2026-05-06 17:50 | 39.47642 | 2.56181 | 3010 ft | 189 kts | 60° |
| 2026-05-06 17:50 | 39.48331 | 2.57626 | 3006 ft | 187 kts | 60° |
| 2026-05-06 17:50 | 39.49021 | 2.59075 | 2578 ft | 194 kts | 60° |
| 2026-05-06 17:51 | 39.49730 | 2.60568 | 2027 ft | 190 kts | 60° |
| 2026-05-06 17:51 | 39.50378 | 2.61927 | 1909 ft | 163 kts | 60° |
| 2026-05-06 17:51 | 39.50963 | 2.63158 | 1724 ft | 155 kts | 60° |
| 2026-05-06 17:51 | 39.51519 | 2.64330 | 1349 ft | 150 kts | 60° |
| 2026-05-06 17:52 | 39.52054 | 2.65458 | 1089 ft | 146 kts | 59° |
| 2026-05-06 17:52 | 39.52584 | 2.66577 | 876 ft | 145 kts | 58° |
| 2026-05-06 17:52 | 39.53114 | 2.67694 | 670 ft | 146 kts | 56° |
| 2026-05-06 17:52 | 39.53649 | 2.68816 | 459 ft | 145 kts | 56° |
| 2026-05-06 17:53 | 39.54187 | 2.69913 | 276 ft | 143 kts | 57° |
| 2026-05-06 17:53 | 39.54700 | 2.71023 | 98 ft | 143 kts | 58° |
| 2026-05-06 17:53 | 39.55194 | 2.72058 | 38 ft | 115 kts | 58° |
| 2026-05-06 17:53 | 39.55452 | 2.72618 | 37 ft | 29 kts | 59° |
| 2026-05-06 17:54 | 39.55495 | 2.72858 | 38 ft | 26 kts | 86° |
| 2026-05-06 17:54 | 39.55499 | 2.73029 | 36 ft | 15 kts | 88° |
| 2026-05-06 17:54 | 39.55501 | 2.73084 | 38 ft | 0 kts | 88° |
| 2026-05-06 17:55 | 39.55501 | 2.73089 | 38 ft | 3 kts | 88° |
| 2026-05-06 17:56 | 39.55504 | 2.73144 | 38 ft | 10 kts | 82° |
| 2026-05-06 17:56 | 39.55537 | 2.73250 | 37 ft | 15 kts | 58° |
| 2026-05-06 17:56 | 39.55601 | 2.73386 | 38 ft | 18 kts | 58° |
| 2026-05-06 17:56 | 39.55621 | 2.73490 | 38 ft | 15 kts | 117° |
| 2026-05-06 17:57 | 39.55518 | 2.73581 | 38 ft | 20 kts | 148° |
| 2026-05-06 17:57 | 39.55395 | 2.73678 | 38 ft | 21 kts | 150° |
| 2026-05-06 17:57 | 39.55267 | 2.73779 | 38 ft | 23 kts | 149° |
| 2026-05-06 17:57 | 39.55131 | 2.73888 | 38 ft | 20 kts | 149° |
| 2026-05-06 17:58 | 39.55008 | 2.73984 | 38 ft | 22 kts | 149° |
| 2026-05-06 17:58 | 39.54890 | 2.74076 | 38 ft | 18 kts | 148° |
| 2026-05-06 17:58 | 39.54798 | 2.74114 | 38 ft | 14 kts | 204° |
| 2026-05-06 17:58 | 39.54737 | 2.74016 | 38 ft | 14 kts | 237° |
| 2026-05-06 17:59 | 39.54683 | 2.73906 | 38 ft | 14 kts | 238° |
| 2026-05-06 17:59 | 39.54636 | 2.73796 | 38 ft | 14 kts | 236° |
| 2026-05-06 17:59 | 39.54585 | 2.73695 | 38 ft | 13 kts | 237° |
| 2026-05-06 17:59 | 39.54608 | 2.73624 | 38 ft | 10 kts | 315° |
| 2026-05-06 18:00 | 39.54601 | 2.73542 | 37 ft | 9 kts | 237° |
| 2026-05-06 18:00 | 39.54567 | 2.73478 | 37 ft | 8 kts | 237° |
| 2026-05-06 18:00 | 39.54540 | 2.73420 | 37 ft | 7 kts | 238° |
| 2026-05-06 18:00 | 39.54516 | 2.73370 | 38 ft | 6 kts | 238° |
| 2026-05-06 18:01 | 39.54496 | 2.73328 | 37 ft | 5 kts | 238° |
| 2026-05-06 18:01 | 39.54492 | 2.73295 | 38 ft | 2 kts | 301° |
| 2026-05-06 18:01 | 39.54501 | 2.73291 | 38 ft | 2 kts | 338° |